AVA9527 SKBO-SKCL
Flight info
| Callsign | AVA9527 |
|---|---|
| Flight time | 0h 33m |
| Altitude | 22000 |
| Route | KAMIS4C KAMIS W16 GIR R564 MANGA MANGA9 |
| Aircraft | A320/M-SDE3FGHIRWY/LB1 |
Departure
| Time | 2026-04-23 20:33 |
|---|---|
| Airport | El Dorado International Airport (SKBO) |
Arrival
| Time | 2026-04-23 21:06 |
|---|---|
| Airport | Alfonso Bonilla Aragon International Airport (SKCL) |
| Time | Latitude | Longitude | Altitude | Speed | Heading |
|---|---|---|---|---|---|
| 2026-04-23 20:12 | 4.69880 | -74.14448 | 8393 ft | 0 kts | 226° |
| 2026-04-23 20:21 | 4.69887 | -74.14441 | 8366 ft | 2 kts | 229° |
| 2026-04-23 20:21 | 4.69898 | -74.14428 | 8366 ft | 2 kts | 236° |
| 2026-04-23 20:21 | 4.69906 | -74.14414 | 8366 ft | 2 kts | 256° |
| 2026-04-23 20:21 | 4.69907 | -74.14397 | 8366 ft | 2 kts | 295° |
| 2026-04-23 20:22 | 4.69900 | -74.14386 | 8366 ft | 1 kts | 308° |
| 2026-04-23 20:22 | 4.69899 | -74.14384 | 8366 ft | 0 kts | 309° |
| 2026-04-23 20:25 | 4.69915 | -74.14404 | 8366 ft | 6 kts | 308° |
| 2026-04-23 20:25 | 4.69951 | -74.14452 | 8366 ft | 10 kts | 307° |
| 2026-04-23 20:26 | 4.69979 | -74.14490 | 8366 ft | 11 kts | 307° |
| 2026-04-23 20:26 | 4.70026 | -74.14551 | 8366 ft | 12 kts | 307° |
| 2026-04-23 20:26 | 4.69992 | -74.14629 | 8366 ft | 12 kts | 216° |
| 2026-04-23 20:26 | 4.69906 | -74.14692 | 8366 ft | 18 kts | 216° |
| 2026-04-23 20:27 | 4.69806 | -74.14766 | 8366 ft | 18 kts | 217° |
| 2026-04-23 20:27 | 4.69716 | -74.14793 | 8365 ft | 13 kts | 146° |
| 2026-04-23 20:27 | 4.69675 | -74.14741 | 8366 ft | 14 kts | 124° |
| 2026-04-23 20:27 | 4.69616 | -74.14664 | 8365 ft | 16 kts | 127° |
| 2026-04-23 20:28 | 4.69525 | -74.14543 | 8365 ft | 26 kts | 127° |
| 2026-04-23 20:28 | 4.69413 | -74.14393 | 8366 ft | 27 kts | 127° |
| 2026-04-23 20:28 | 4.69292 | -74.14236 | 8366 ft | 27 kts | 127° |
| 2026-04-23 20:28 | 4.69185 | -74.14093 | 8366 ft | 17 kts | 126° |
| 2026-04-23 20:29 | 4.69107 | -74.14092 | 8366 ft | 11 kts | 216° |
| 2026-04-23 20:29 | 4.69095 | -74.14101 | 8366 ft | 0 kts | 219° |
| 2026-04-23 20:29 | 4.69093 | -74.14103 | 8366 ft | 0 kts | 219° |
| 2026-04-23 20:30 | 4.69090 | -74.14106 | 8366 ft | 2 kts | 219° |
| 2026-04-23 20:30 | 4.69078 | -74.14115 | 8366 ft | 0 kts | 219° |
| 2026-04-23 20:31 | 4.69076 | -74.14117 | 8366 ft | 3 kts | 219° |
| 2026-04-23 20:32 | 4.69025 | -74.14159 | 8366 ft | 12 kts | 226° |
| 2026-04-23 20:32 | 4.69022 | -74.14237 | 8366 ft | 12 kts | 302° |
| 2026-04-23 20:32 | 4.69096 | -74.14334 | 8365 ft | 36 kts | 307° |
| 2026-04-23 20:32 | 4.69397 | -74.14732 | 8362 ft | 104 kts | 307° |
| 2026-04-23 20:33 | 4.69942 | -74.15453 | 8366 ft | 157 kts | 307° |
| 2026-04-23 20:33 | 4.70682 | -74.16436 | 8545 ft | 185 kts | 304° |
| 2026-04-23 20:33 | 4.71449 | -74.17435 | 9575 ft | 177 kts | 306° |
| 2026-04-23 20:33 | 4.72192 | -74.18414 | 9991 ft | 184 kts | 307° |
| 2026-04-23 20:34 | 4.72995 | -74.19488 | 10229 ft | 201 kts | 306° |
| 2026-04-23 20:34 | 4.73850 | -74.20655 | 10543 ft | 214 kts | 305° |
| 2026-04-23 20:34 | 4.74767 | -74.21899 | 10742 ft | 232 kts | 306° |
| 2026-04-23 20:34 | 4.75660 | -74.23345 | 10918 ft | 254 kts | 285° |
| 2026-04-23 20:35 | 4.75697 | -74.25115 | 11453 ft | 260 kts | 257° |
| 2026-04-23 20:35 | 4.75118 | -74.26855 | 11774 ft | 265 kts | 246° |
| 2026-04-23 20:35 | 4.74322 | -74.28519 | 11827 ft | 264 kts | 243° |
| 2026-04-23 20:35 | 4.73473 | -74.30152 | 11822 ft | 265 kts | 243° |
| 2026-04-23 20:36 | 4.72635 | -74.31794 | 11806 ft | 263 kts | 244° |
| 2026-04-23 20:36 | 4.71833 | -74.33443 | 11788 ft | 263 kts | 245° |
| 2026-04-23 20:36 | 4.71062 | -74.35102 | 11765 ft | 263 kts | 246° |
| 2026-04-23 20:36 | 4.70319 | -74.36755 | 11727 ft | 264 kts | 246° |
| 2026-04-23 20:37 | 4.69577 | -74.38445 | 11708 ft | 265 kts | 246° |
| 2026-04-23 20:37 | 4.68841 | -74.40138 | 11685 ft | 265 kts | 246° |
| 2026-04-23 20:37 | 4.68058 | -74.41808 | 11660 ft | 265 kts | 236° |
| 2026-04-23 20:37 | 4.66725 | -74.43093 | 11663 ft | 278 kts | 212° |
| 2026-04-23 20:38 | 4.65001 | -74.44133 | 11903 ft | 301 kts | 211° |
| 2026-04-23 20:38 | 4.63127 | -74.45250 | 12098 ft | 325 kts | 211° |
| 2026-04-23 20:38 | 4.61120 | -74.46441 | 12335 ft | 344 kts | 211° |
| 2026-04-23 20:38 | 4.59043 | -74.47692 | 12903 ft | 351 kts | 212° |
| 2026-04-23 20:39 | 4.56948 | -74.48981 | 13546 ft | 355 kts | 212° |
| 2026-04-23 20:39 | 4.54837 | -74.50291 | 14122 ft | 358 kts | 212° |
| 2026-04-23 20:39 | 4.52711 | -74.51611 | 14746 ft | 362 kts | 212° |
| 2026-04-23 20:39 | 4.50564 | -74.52945 | 15270 ft | 365 kts | 212° |
| 2026-04-23 20:40 | 4.48395 | -74.54290 | 15444 ft | 366 kts | 212° |
| 2026-04-23 20:40 | 4.46233 | -74.55626 | 15485 ft | 366 kts | 212° |
| 2026-04-23 20:40 | 4.44063 | -74.56965 | 15486 ft | 365 kts | 212° |
| 2026-04-23 20:40 | 4.41899 | -74.58301 | 15484 ft | 365 kts | 212° |
| 2026-04-23 20:41 | 4.39725 | -74.59642 | 15774 ft | 369 kts | 212° |
| 2026-04-23 20:41 | 4.37538 | -74.61003 | 16423 ft | 371 kts | 214° |
| 2026-04-23 20:41 | 4.35633 | -74.62754 | 16997 ft | 373 kts | 230° |
| 2026-04-23 20:41 | 4.34022 | -74.64806 | 17590 ft | 376 kts | 234° |
| 2026-04-23 20:42 | 4.32533 | -74.66938 | 18165 ft | 379 kts | 236° |
| 2026-04-23 20:42 | 4.31073 | -74.69152 | 18644 ft | 382 kts | 237° |
| 2026-04-23 20:42 | 4.29613 | -74.71395 | 19114 ft | 386 kts | 237° |
| 2026-04-23 20:42 | 4.28127 | -74.73650 | 19583 ft | 390 kts | 237° |
| 2026-04-23 20:43 | 4.26605 | -74.75912 | 20046 ft | 393 kts | 236° |
| 2026-04-23 20:43 | 4.25047 | -74.78181 | 20482 ft | 397 kts | 236° |
| 2026-04-23 20:43 | 4.23462 | -74.80463 | 20921 ft | 401 kts | 236° |
| 2026-04-23 20:43 | 4.21858 | -74.82764 | 21352 ft | 405 kts | 236° |
| 2026-04-23 20:44 | 4.20241 | -74.85087 | 21727 ft | 408 kts | 236° |
| 2026-04-23 20:44 | 4.18729 | -74.87493 | 21831 ft | 407 kts | 243° |
| 2026-04-23 20:44 | 4.17437 | -74.90001 | 21852 ft | 404 kts | 244° |
| 2026-04-23 20:44 | 4.16159 | -74.92502 | 21851 ft | 403 kts | 244° |
| 2026-04-23 20:45 | 4.14884 | -74.95001 | 21851 ft | 403 kts | 244° |
| 2026-04-23 20:45 | 4.13609 | -74.97499 | 21851 ft | 403 kts | 244° |
| 2026-04-23 20:45 | 4.12332 | -74.99994 | 21855 ft | 403 kts | 244° |
| 2026-04-23 20:45 | 4.11053 | -75.02489 | 21854 ft | 403 kts | 244° |
| 2026-04-23 20:46 | 4.09773 | -75.04984 | 21855 ft | 403 kts | 244° |
| 2026-04-23 20:46 | 4.08498 | -75.07471 | 21851 ft | 402 kts | 244° |
| 2026-04-23 20:46 | 4.07239 | -75.09927 | 21852 ft | 400 kts | 244° |
| 2026-04-23 20:46 | 4.05969 | -75.12408 | 21852 ft | 400 kts | 244° |
| 2026-04-23 20:47 | 4.04700 | -75.14886 | 21853 ft | 400 kts | 243° |
| 2026-04-23 20:47 | 4.03429 | -75.17366 | 21851 ft | 400 kts | 243° |
| 2026-04-23 20:47 | 4.02162 | -75.19839 | 21851 ft | 400 kts | 243° |
| 2026-04-23 20:47 | 4.00892 | -75.22316 | 21881 ft | 400 kts | 243° |
| 2026-04-23 20:48 | 3.99621 | -75.24793 | 21882 ft | 400 kts | 243° |
| 2026-04-23 20:48 | 3.98350 | -75.27270 | 21880 ft | 400 kts | 243° |
| 2026-04-23 20:48 | 3.97078 | -75.29752 | 21864 ft | 400 kts | 243° |
| 2026-04-23 20:48 | 3.95812 | -75.32224 | 21864 ft | 400 kts | 243° |
| 2026-04-23 20:49 | 3.94542 | -75.34700 | 21860 ft | 400 kts | 243° |
| 2026-04-23 20:49 | 3.93271 | -75.37176 | 21901 ft | 400 kts | 243° |
| 2026-04-23 20:49 | 3.91997 | -75.39650 | 21902 ft | 400 kts | 243° |
| 2026-04-23 20:49 | 3.90721 | -75.42129 | 21902 ft | 400 kts | 243° |
| 2026-04-23 20:50 | 3.89451 | -75.44605 | 21902 ft | 400 kts | 243° |
| 2026-04-23 20:50 | 3.88182 | -75.47083 | 21904 ft | 400 kts | 243° |
| 2026-04-23 20:50 | 3.86914 | -75.49558 | 21904 ft | 400 kts | 243° |
| 2026-04-23 20:50 | 3.85646 | -75.52028 | 21955 ft | 400 kts | 243° |
| 2026-04-23 20:51 | 3.84374 | -75.54503 | 21958 ft | 400 kts | 243° |
| 2026-04-23 20:51 | 3.83105 | -75.56978 | 21934 ft | 400 kts | 243° |
| 2026-04-23 20:51 | 3.81836 | -75.59454 | 21933 ft | 400 kts | 243° |
| 2026-04-23 20:51 | 3.80567 | -75.61930 | 21932 ft | 400 kts | 243° |
| 2026-04-23 20:52 | 3.79299 | -75.64405 | 21984 ft | 399 kts | 243° |
| 2026-04-23 20:52 | 3.78028 | -75.66879 | 21984 ft | 400 kts | 243° |
| 2026-04-23 20:52 | 3.76772 | -75.69319 | 21983 ft | 400 kts | 243° |
| 2026-04-23 20:52 | 3.75501 | -75.71792 | 21984 ft | 399 kts | 243° |
| 2026-04-23 20:53 | 3.74226 | -75.74270 | 21981 ft | 399 kts | 243° |
| 2026-04-23 20:53 | 3.72952 | -75.76742 | 21981 ft | 399 kts | 243° |
| 2026-04-23 20:53 | 3.71678 | -75.79214 | 22015 ft | 399 kts | 242° |
| 2026-04-23 20:53 | 3.70417 | -75.81689 | 22023 ft | 399 kts | 243° |
| 2026-04-23 20:54 | 3.69154 | -75.84156 | 22022 ft | 399 kts | 243° |
| 2026-04-23 20:54 | 3.67883 | -75.86633 | 22017 ft | 400 kts | 243° |
| 2026-04-23 20:54 | 3.66602 | -75.89128 | 21465 ft | 408 kts | 243° |
| 2026-04-23 20:54 | 3.65305 | -75.91657 | 20967 ft | 404 kts | 243° |
| 2026-04-23 20:55 | 3.64036 | -75.94130 | 20508 ft | 398 kts | 243° |
| 2026-04-23 20:55 | 3.62774 | -75.96588 | 19991 ft | 395 kts | 243° |
| 2026-04-23 20:55 | 3.61523 | -75.99028 | 19492 ft | 392 kts | 243° |
| 2026-04-23 20:55 | 3.60280 | -76.01455 | 19025 ft | 389 kts | 243° |
| 2026-04-23 20:56 | 3.59053 | -76.03857 | 18579 ft | 386 kts | 243° |
| 2026-04-23 20:56 | 3.57848 | -76.06217 | 18108 ft | 383 kts | 243° |
| 2026-04-23 20:56 | 3.56639 | -76.08582 | 17571 ft | 380 kts | 243° |
| 2026-04-23 20:56 | 3.55440 | -76.10921 | 17122 ft | 375 kts | 243° |
| 2026-04-23 20:57 | 3.54251 | -76.13237 | 16673 ft | 371 kts | 243° |
| 2026-04-23 20:57 | 3.53076 | -76.15522 | 16218 ft | 368 kts | 243° |
| 2026-04-23 20:57 | 3.51904 | -76.17798 | 15772 ft | 366 kts | 243° |
| 2026-04-23 20:57 | 3.50744 | -76.20053 | 15298 ft | 363 kts | 243° |
| 2026-04-23 20:58 | 3.49597 | -76.22289 | 14834 ft | 361 kts | 243° |
| 2026-04-23 20:58 | 3.48452 | -76.24519 | 14375 ft | 358 kts | 243° |
| 2026-04-23 20:58 | 3.47109 | -76.26599 | 13941 ft | 355 kts | 228° |
| 2026-04-23 20:58 | 3.45188 | -76.28135 | 13464 ft | 353 kts | 208° |
| 2026-04-23 20:59 | 3.42883 | -76.28944 | 12910 ft | 353 kts | 190° |
| 2026-04-23 20:59 | 3.40417 | -76.29036 | 12208 ft | 354 kts | 180° |
| 2026-04-23 20:59 | 3.38005 | -76.29185 | 11436 ft | 344 kts | 190° |
| 2026-04-23 20:59 | 3.35715 | -76.29815 | 10579 ft | 340 kts | 202° |
| 2026-04-23 21:00 | 3.33679 | -76.30907 | 10149 ft | 323 kts | 214° |
| 2026-04-23 21:00 | 3.32003 | -76.32281 | 9990 ft | 302 kts | 225° |
| 2026-04-23 21:00 | 3.30636 | -76.33863 | 9635 ft | 302 kts | 234° |
| 2026-04-23 21:00 | 3.29574 | -76.35672 | 9202 ft | 302 kts | 245° |
| 2026-04-23 21:01 | 3.28857 | -76.37637 | 8770 ft | 300 kts | 255° |
| 2026-04-23 21:01 | 3.28505 | -76.39688 | 8342 ft | 299 kts | 268° |
| 2026-04-23 21:01 | 3.28942 | -76.41701 | 7860 ft | 299 kts | 300° |
| 2026-04-23 21:01 | 3.30350 | -76.43153 | 7495 ft | 295 kts | 332° |
| 2026-04-23 21:02 | 3.32297 | -76.43623 | 7228 ft | 288 kts | 4° |
| 2026-04-23 21:02 | 3.34194 | -76.43173 | 6882 ft | 275 kts | 21° |
| 2026-04-23 21:02 | 3.35936 | -76.42498 | 6525 ft | 263 kts | 21° |
| 2026-04-23 21:02 | 3.37605 | -76.41848 | 6179 ft | 252 kts | 21° |
| 2026-04-23 21:03 | 3.39209 | -76.41221 | 5833 ft | 243 kts | 21° |
| 2026-04-23 21:03 | 3.40760 | -76.40622 | 5503 ft | 234 kts | 17° |
| 2026-04-23 21:03 | 3.42282 | -76.40252 | 5183 ft | 218 kts | 10° |
| 2026-04-23 21:03 | 3.43727 | -76.40000 | 4916 ft | 205 kts | 9° |
| 2026-04-23 21:04 | 3.45115 | -76.39764 | 4695 ft | 199 kts | 9° |
| 2026-04-23 21:04 | 3.46435 | -76.39536 | 4476 ft | 186 kts | 8° |
| 2026-04-23 21:04 | 3.47670 | -76.39322 | 4242 ft | 175 kts | 8° |
| 2026-04-23 21:04 | 3.48823 | -76.39122 | 4029 ft | 162 kts | 7° |
| 2026-04-23 21:05 | 3.49913 | -76.38931 | 3786 ft | 156 kts | 8° |
| 2026-04-23 21:05 | 3.50965 | -76.38750 | 3558 ft | 152 kts | 7° |
| 2026-04-23 21:05 | 3.51990 | -76.38566 | 3403 ft | 147 kts | 8° |
| 2026-04-23 21:05 | 3.52986 | -76.38393 | 3201 ft | 144 kts | 5° |
| 2026-04-23 21:06 | 3.53858 | -76.38250 | 3167 ft | 93 kts | 9° |
| 2026-04-23 21:06 | 3.54427 | -76.38149 | 3165 ft | 62 kts | 10° |
| 2026-04-23 21:06 | 3.54577 | -76.38139 | 3167 ft | 13 kts | 321° |
| 2026-04-23 21:06 | 3.54608 | -76.38224 | 3166 ft | 13 kts | 279° |
| 2026-04-23 21:07 | 3.54561 | -76.38292 | 3166 ft | 13 kts | 190° |
| 2026-04-23 21:07 | 3.54476 | -76.38305 | 3167 ft | 11 kts | 189° |
| 2026-04-23 21:07 | 3.54403 | -76.38318 | 3165 ft | 10 kts | 190° |
| 2026-04-23 21:07 | 3.54336 | -76.38329 | 3165 ft | 9 kts | 190° |
| 2026-04-23 21:08 | 3.54266 | -76.38342 | 3165 ft | 10 kts | 190° |
| 2026-04-23 21:08 | 3.54200 | -76.38354 | 3165 ft | 9 kts | 190° |
| 2026-04-23 21:08 | 3.54127 | -76.38364 | 3164 ft | 17 kts | 188° |
| 2026-04-23 21:08 | 3.54004 | -76.38448 | 3163 ft | 23 kts | 220° |
| 2026-04-23 21:09 | 3.53883 | -76.38549 | 3163 ft | 12 kts | 220° |
| 2026-04-23 21:09 | 3.53869 | -76.38642 | 3165 ft | 18 kts | 307° |
| 2026-04-23 21:09 | 3.53913 | -76.38707 | 3163 ft | 10 kts | 275° |
| 2026-04-23 21:09 | 3.53915 | -76.38789 | 3163 ft | 10 kts | 246° |
| 2026-04-23 21:10 | 3.53885 | -76.38797 | 3162 ft | 3 kts | 156° |
| 2026-04-23 21:10 | 3.53869 | -76.38786 | 3162 ft | 2 kts | 141° |
| 2026-04-23 21:10 | 3.53860 | -76.38780 | 3162 ft | 1 kts | 145° |
| 2026-04-23 21:11 | 3.53855 | -76.38777 | 3162 ft | 0 kts | 146° |